sensor_id;sensor_type;location;lat;lon;timestamp;temperature;humidity
7606;DHT22;3844;53.360;9.738;2022-09-03T00:04:52;14.20;75.10
7606;DHT22;3844;53.360;9.738;2022-09-03T00:07:02;14.20;75.30
7606;DHT22;3844;53.360;9.738;2022-09-03T00:09:28;14.20;75.60
7606;DHT22;3844;53.360;9.738;2022-09-03T00:14:06;14.20;75.50
7606;DHT22;3844;53.360;9.738;2022-09-03T00:16:10;14.10;75.60
7606;DHT22;3844;53.360;9.738;2022-09-03T00:18:15;14.10;75.70
7606;DHT22;3844;53.360;9.738;2022-09-03T00:20:27;14.10;75.90
7606;DHT22;3844;53.360;9.738;2022-09-03T00:22:46;14.10;75.90
7606;DHT22;3844;53.360;9.738;2022-09-03T00:24:48;14.00;75.90
7606;DHT22;3844;53.360;9.738;2022-09-03T00:26:52;14.00;76.10
7606;DHT22;3844;53.360;9.738;2022-09-03T00:29:40;14.00;76.20
7606;DHT22;3844;53.360;9.738;2022-09-03T00:33:22;13.90;76.20
7606;DHT22;3844;53.360;9.738;2022-09-03T00:37:36;13.90;76.00
7606;DHT22;3844;53.360;9.738;2022-09-03T00:39:37;13.90;76.10
7606;DHT22;3844;53.360;9.738;2022-09-03T00:48:22;13.80;76.50
7606;DHT22;3844;53.360;9.738;2022-09-03T00:50:45;13.80;76.40
7606;DHT22;3844;53.360;9.738;2022-09-03T00:53:16;13.90;76.20
7606;DHT22;3844;53.360;9.738;2022-09-03T01:00:13;13.90;76.00
7606;DHT22;3844;53.360;9.738;2022-09-03T01:07:11;13.70;76.50
7606;DHT22;3844;53.360;9.738;2022-09-03T01:16:32;13.50;77.00
7606;DHT22;3844;53.360;9.738;2022-09-03T01:21:26;13.50;77.20
7606;DHT22;3844;53.360;9.738;2022-09-03T01:23:55;13.50;77.40
7606;DHT22;3844;53.360;9.738;2022-09-03T01:26:05;13.40;77.30
7606;DHT22;3844;53.360;9.738;2022-09-03T01:28:29;13.40;77.20
7606;DHT22;3844;53.360;9.738;2022-09-03T01:30:44;13.30;77.30
7606;DHT22;3844;53.360;9.738;2022-09-03T01:33:13;13.30;77.60
7606;DHT22;3844;53.360;9.738;2022-09-03T01:38:25;13.30;78.00
7606;DHT22;3844;53.360;9.738;2022-09-03T01:40:49;13.30;77.70
7606;DHT22;3844;53.360;9.738;2022-09-03T01:49:55;13.20;78.00
7606;DHT22;3844;53.360;9.738;2022-09-03T01:52:13;13.20;78.00
7606;DHT22;3844;53.360;9.738;2022-09-03T01:55:07;13.20;78.20
7606;DHT22;3844;53.360;9.738;2022-09-03T01:59:32;13.20;78.10
7606;DHT22;3844;53.360;9.738;2022-09-03T02:01:42;13.20;78.20
7606;DHT22;3844;53.360;9.738;2022-09-03T02:03:44;13.10;78.40
7606;DHT22;3844;53.360;9.738;2022-09-03T02:05:46;13.10;78.10
7606;DHT22;3844;53.360;9.738;2022-09-03T02:07:58;13.10;78.50
7606;DHT22;3844;53.360;9.738;2022-09-03T02:10:06;13.10;78.50
7606;DHT22;3844;53.360;9.738;2022-09-03T02:12:12;13.10;78.80
7606;DHT22;3844;53.360;9.738;2022-09-03T02:14:14;13.00;78.80
7606;DHT22;3844;53.360;9.738;2022-09-03T02:16:22;13.00;78.90
7606;DHT22;3844;53.360;9.738;2022-09-03T02:18:28;13.00;79.00
7606;DHT22;3844;53.360;9.738;2022-09-03T02:20:30;12.90;79.00
7606;DHT22;3844;53.360;9.738;2022-09-03T02:22:32;12.90;78.90
7606;DHT22;3844;53.360;9.738;2022-09-03T02:24:33;12.90;79.00
7606;DHT22;3844;53.360;9.738;2022-09-03T02:26:35;12.90;78.90
7606;DHT22;3844;53.360;9.738;2022-09-03T02:28:36;12.90;78.90
7606;DHT22;3844;53.360;9.738;2022-09-03T02:30:37;12.90;79.30
7606;DHT22;3844;53.360;9.738;2022-09-03T02:32:37;12.80;79.10
7606;DHT22;3844;53.360;9.738;2022-09-03T02:34:38;12.80;78.90
7606;DHT22;3844;53.360;9.738;2022-09-03T02:36:43;12.80;79.10
7606;DHT22;3844;53.360;9.738;2022-09-03T02:38:47;12.80;79.50
7606;DHT22;3844;53.360;9.738;2022-09-03T02:40:47;12.80;79.50
7606;DHT22;3844;53.360;9.738;2022-09-03T02:42:48;12.70;79.50
7606;DHT22;3844;53.360;9.738;2022-09-03T02:45:28;12.70;80.00
7606;DHT22;3844;53.360;9.738;2022-09-03T02:47:22;12.70;79.80
7606;DHT22;3844;53.360;9.738;2022-09-03T02:49:25;12.70;79.90
7606;DHT22;3844;53.360;9.738;2022-09-03T02:51:32;12.70;79.90
7606;DHT22;3844;53.360;9.738;2022-09-03T02:53:33;12.70;80.00
7606;DHT22;3844;53.360;9.738;2022-09-03T02:55:34;12.70;79.80
7606;DHT22;3844;53.360;9.738;2022-09-03T02:57:34;12.70;80.00
7606;DHT22;3844;53.360;9.738;2022-09-03T02:59:36;12.70;79.80
7606;DHT22;3844;53.360;9.738;2022-09-03T03:01:37;12.60;79.90
7606;DHT22;3844;53.360;9.738;2022-09-03T03:03:38;12.60;80.20
7606;DHT22;3844;53.360;9.738;2022-09-03T03:05:49;12.60;80.00
7606;DHT22;3844;53.360;9.738;2022-09-03T03:07:50;12.60;80.10
7606;DHT22;3844;53.360;9.738;2022-09-03T03:09:51;12.60;80.00
7606;DHT22;3844;53.360;9.738;2022-09-03T03:11:52;12.60;80.20
7606;DHT22;3844;53.360;9.738;2022-09-03T03:13:54;12.60;80.00
7606;DHT22;3844;53.360;9.738;2022-09-03T03:15:59;12.50;80.00
7606;DHT22;3844;53.360;9.738;2022-09-03T03:18:01;12.50;80.30
7606;DHT22;3844;53.360;9.738;2022-09-03T03:20:02;12.50;80.10
7606;DHT22;3844;53.360;9.738;2022-09-03T03:22:03;12.40;80.30
7606;DHT22;3844;53.360;9.738;2022-09-03T03:24:03;12.40;80.50
7606;DHT22;3844;53.360;9.738;2022-09-03T03:26:07;12.40;80.40
7606;DHT22;3844;53.360;9.738;2022-09-03T03:28:08;12.40;80.70
7606;DHT22;3844;53.360;9.738;2022-09-03T03:30:10;12.40;80.70
7606;DHT22;3844;53.360;9.738;2022-09-03T03:34:12;12.30;80.70
7606;DHT22;3844;53.360;9.738;2022-09-03T03:36:14;12.30;80.70
7606;DHT22;3844;53.360;9.738;2022-09-03T03:38:15;12.20;80.90
7606;DHT22;3844;53.360;9.738;2022-09-03T03:40:16;12.20;80.80
7606;DHT22;3844;53.360;9.738;2022-09-03T03:42:17;12.20;81.20
7606;DHT22;3844;53.360;9.738;2022-09-03T03:44:17;12.10;81.20
7606;DHT22;3844;53.360;9.738;2022-09-03T03:46:20;12.10;80.90
7606;DHT22;3844;53.360;9.738;2022-09-03T03:48:21;12.10;81.40
7606;DHT22;3844;53.360;9.738;2022-09-03T03:50:22;12.10;81.10
7606;DHT22;3844;53.360;9.738;2022-09-03T03:52:24;12.10;81.30
7606;DHT22;3844;53.360;9.738;2022-09-03T03:54:25;12.00;81.40
7606;DHT22;3844;53.360;9.738;2022-09-03T03:56:26;12.00;81.30
7606;DHT22;3844;53.360;9.738;2022-09-03T03:58:30;12.00;81.20
7606;DHT22;3844;53.360;9.738;2022-09-03T04:00:31;12.00;81.60
7606;DHT22;3844;53.360;9.738;2022-09-03T04:02:33;12.00;81.40
7606;DHT22;3844;53.360;9.738;2022-09-03T04:06:34;12.00;81.80
7606;DHT22;3844;53.360;9.738;2022-09-03T04:08:37;12.00;81.70
7606;DHT22;3844;53.360;9.738;2022-09-03T04:10:38;11.90;81.60
7606;DHT22;3844;53.360;9.738;2022-09-03T04:12:39;11.90;81.70
7606;DHT22;3844;53.360;9.738;2022-09-03T04:14:39;11.90;81.80
7606;DHT22;3844;53.360;9.738;2022-09-03T04:16:41;11.90;81.70
7606;DHT22;3844;53.360;9.738;2022-09-03T04:18:42;11.90;81.80
7606;DHT22;3844;53.360;9.738;2022-09-03T04:20:42;11.90;81.60
7606;DHT22;3844;53.360;9.738;2022-09-03T04:22:43;12.00;81.60
7606;DHT22;3844;53.360;9.738;2022-09-03T04:26:45;12.00;81.60
7606;DHT22;3844;53.360;9.738;2022-09-03T04:28:46;12.00;81.40
7606;DHT22;3844;53.360;9.738;2022-09-03T04:30:47;11.90;81.30
7606;DHT22;3844;53.360;9.738;2022-09-03T04:32:49;11.90;81.50
7606;DHT22;3844;53.360;9.738;2022-09-03T04:34:52;11.90;81.60
7606;DHT22;3844;53.360;9.738;2022-09-03T04:36:53;11.90;81.50
7606;DHT22;3844;53.360;9.738;2022-09-03T04:38:55;11.90;81.80
7606;DHT22;3844;53.360;9.738;2022-09-03T04:40:58;11.90;81.90
7606;DHT22;3844;53.360;9.738;2022-09-03T04:43:00;11.90;81.70
7606;DHT22;3844;53.360;9.738;2022-09-03T04:47:01;11.80;81.80
7606;DHT22;3844;53.360;9.738;2022-09-03T04:49:03;11.80;81.60
7606;DHT22;3844;53.360;9.738;2022-09-03T04:51:07;11.80;81.60
7606;DHT22;3844;53.360;9.738;2022-09-03T04:53:08;11.80;81.90
7606;DHT22;3844;53.360;9.738;2022-09-03T04:55:09;11.80;81.80
7606;DHT22;3844;53.360;9.738;2022-09-03T04:57:10;11.80;81.90
7606;DHT22;3844;53.360;9.738;2022-09-03T05:01:18;11.80;81.80
7606;DHT22;3844;53.360;9.738;2022-09-03T05:03:19;11.80;81.80
7606;DHT22;3844;53.360;9.738;2022-09-03T05:05:21;11.80;81.70
7606;DHT22;3844;53.360;9.738;2022-09-03T05:07:22;11.90;81.80
7606;DHT22;3844;53.360;9.738;2022-09-03T05:09:22;11.90;81.50
7606;DHT22;3844;53.360;9.738;2022-09-03T05:11:24;11.90;81.70
7606;DHT22;3844;53.360;9.738;2022-09-03T05:13:25;11.90;81.50
7606;DHT22;3844;53.360;9.738;2022-09-03T05:15:27;12.00;81.60
7606;DHT22;3844;53.360;9.738;2022-09-03T05:17:28;12.00;81.50
7606;DHT22;3844;53.360;9.738;2022-09-03T05:19:28;12.10;81.40
7606;DHT22;3844;53.360;9.738;2022-09-03T05:23:30;12.10;81.20
7606;DHT22;3844;53.360;9.738;2022-09-03T05:25:31;12.10;81.00
7606;DHT22;3844;53.360;9.738;2022-09-03T05:27:32;12.20;80.90
7606;DHT22;3844;53.360;9.738;2022-09-03T05:29:33;12.20;80.80
7606;DHT22;3844;53.360;9.738;2022-09-03T05:31:36;12.30;80.60
7606;DHT22;3844;53.360;9.738;2022-09-03T05:33:40;12.30;80.50
7606;DHT22;3844;53.360;9.738;2022-09-03T05:35:42;12.40;80.50
7606;DHT22;3844;53.360;9.738;2022-09-03T05:37:43;12.40;80.30
7606;DHT22;3844;53.360;9.738;2022-09-03T05:39:43;12.40;80.40
7606;DHT22;3844;53.360;9.738;2022-09-03T05:43:50;12.40;80.40
7606;DHT22;3844;53.360;9.738;2022-09-03T05:46:06;12.50;80.30
7606;DHT22;3844;53.360;9.738;2022-09-03T05:48:08;12.50;80.20
7606;DHT22;3844;53.360;9.738;2022-09-03T05:50:09;12.60;80.10
7606;DHT22;3844;53.360;9.738;2022-09-03T05:52:10;12.70;80.00
7606;DHT22;3844;53.360;9.738;2022-09-03T05:54:10;12.80;79.60
7606;DHT22;3844;53.360;9.738;2022-09-03T05:56:16;13.00;79.40
7606;DHT22;3844;53.360;9.738;2022-09-03T05:58:18;13.20;78.80
7606;DHT22;3844;53.360;9.738;2022-09-03T06:00:19;13.50;77.70
7606;DHT22;3844;53.360;9.738;2022-09-03T06:02:19;13.70;77.10
7606;DHT22;3844;53.360;9.738;2022-09-03T06:04:21;13.90;76.70
7606;DHT22;3844;53.360;9.738;2022-09-03T06:06:22;14.10;75.80
7606;DHT22;3844;53.360;9.738;2022-09-03T06:08:25;14.10;75.80
7606;DHT22;3844;53.360;9.738;2022-09-03T06:10:25;14.40;75.10
7606;DHT22;3844;53.360;9.738;2022-09-03T06:12:26;14.60;74.40
7606;DHT22;3844;53.360;9.738;2022-09-03T06:14:27;14.60;74.00
7606;DHT22;3844;53.360;9.738;2022-09-03T06:16:28;14.70;73.40
7606;DHT22;3844;53.360;9.738;2022-09-03T06:18:29;14.80;73.30
7606;DHT22;3844;53.360;9.738;2022-09-03T06:20:30;14.90;73.50
7606;DHT22;3844;53.360;9.738;2022-09-03T06:22:31;15.00;72.40
7606;DHT22;3844;53.360;9.738;2022-09-03T06:24:32;15.10;72.50
7606;DHT22;3844;53.360;9.738;2022-09-03T06:26:33;15.30;71.70
7606;DHT22;3844;53.360;9.738;2022-09-03T06:28:35;15.50;71.10
7606;DHT22;3844;53.360;9.738;2022-09-03T06:30:37;15.60;71.10
7606;DHT22;3844;53.360;9.738;2022-09-03T06:32:44;16.00;70.30
7606;DHT22;3844;53.360;9.738;2022-09-03T06:34:45;16.20;69.50
7606;DHT22;3844;53.360;9.738;2022-09-03T06:36:46;16.50;69.20
7606;DHT22;3844;53.360;9.738;2022-09-03T06:38:46;16.70;67.60
7606;DHT22;3844;53.360;9.738;2022-09-03T06:40:54;16.70;68.00
7606;DHT22;3844;53.360;9.738;2022-09-03T06:42:56;16.90;67.40
7606;DHT22;3844;53.360;9.738;2022-09-03T06:45:00;17.00;67.00
7606;DHT22;3844;53.360;9.738;2022-09-03T06:47:01;17.10;67.00
7606;DHT22;3844;53.360;9.738;2022-09-03T06:49:02;17.20;66.10
7606;DHT22;3844;53.360;9.738;2022-09-03T06:51:06;17.20;66.40
7606;DHT22;3844;53.360;9.738;2022-09-03T06:53:07;17.30;66.10
7606;DHT22;3844;53.360;9.738;2022-09-03T06:55:08;17.30;65.80
7606;DHT22;3844;53.360;9.738;2022-09-03T06:57:08;17.40;66.00
7606;DHT22;3844;53.360;9.738;2022-09-03T06:59:13;17.60;65.50
7606;DHT22;3844;53.360;9.738;2022-09-03T07:01:18;17.80;64.60
7606;DHT22;3844;53.360;9.738;2022-09-03T07:03:20;18.00;64.50
7606;DHT22;3844;53.360;9.738;2022-09-03T07:05:20;18.30;64.40
7606;DHT22;3844;53.360;9.738;2022-09-03T07:07:25;18.50;63.60
7606;DHT22;3844;53.360;9.738;2022-09-03T07:09:25;18.70;62.90
7606;DHT22;3844;53.360;9.738;2022-09-03T07:11:28;18.80;62.30
7606;DHT22;3844;53.360;9.738;2022-09-03T07:13:30;18.90;62.30
7606;DHT22;3844;53.360;9.738;2022-09-03T07:15:32;18.90;62.30
7606;DHT22;3844;53.360;9.738;2022-09-03T07:17:32;19.10;61.80
7606;DHT22;3844;53.360;9.738;2022-09-03T07:21:35;19.80;60.60
7606;DHT22;3844;53.360;9.738;2022-09-03T07:23:37;20.10;60.60
7606;DHT22;3844;53.360;9.738;2022-09-03T07:25:38;20.50;59.50
7606;DHT22;3844;53.360;9.738;2022-09-03T07:27:39;20.70;58.60
7606;DHT22;3844;53.360;9.738;2022-09-03T07:29:39;20.90;58.40
7606;DHT22;3844;53.360;9.738;2022-09-03T07:31:41;21.20;58.40
7606;DHT22;3844;53.360;9.738;2022-09-03T07:33:42;21.40;56.90
7606;DHT22;3844;53.360;9.738;2022-09-03T07:35:43;21.50;56.60
7606;DHT22;3844;53.360;9.738;2022-09-03T07:37:47;21.60;55.90
7606;DHT22;3844;53.360;9.738;2022-09-03T07:39:51;21.60;56.00
7606;DHT22;3844;53.360;9.738;2022-09-03T07:41:52;22.00;56.20
7606;DHT22;3844;53.360;9.738;2022-09-03T07:43:53;22.20;55.30
7606;DHT22;3844;53.360;9.738;2022-09-03T07:45:54;22.40;54.50
7606;DHT22;3844;53.360;9.738;2022-09-03T07:52:00;22.70;54.30
7606;DHT22;3844;53.360;9.738;2022-09-03T07:54:04;23.00;53.80
7606;DHT22;3844;53.360;9.738;2022-09-03T07:56:07;23.30;53.30
7606;DHT22;3844;53.360;9.738;2022-09-03T07:58:09;23.60;52.00
7606;DHT22;3844;53.360;9.738;2022-09-03T08:00:12;23.90;52.40
7606;DHT22;3844;53.360;9.738;2022-09-03T08:02:13;24.00;51.60
7606;DHT22;3844;53.360;9.738;2022-09-03T08:04:14;23.90;51.40
7606;DHT22;3844;53.360;9.738;2022-09-03T08:06:17;24.00;51.30
7606;DHT22;3844;53.360;9.738;2022-09-03T08:08:18;24.30;50.90
7606;DHT22;3844;53.360;9.738;2022-09-03T08:10:19;24.50;50.40
7606;DHT22;3844;53.360;9.738;2022-09-03T08:12:20;24.80;50.20
7606;DHT22;3844;53.360;9.738;2022-09-03T08:14:21;25.00;49.80
7606;DHT22;3844;53.360;9.738;2022-09-03T08:16:22;25.10;50.50
7606;DHT22;3844;53.360;9.738;2022-09-03T08:18:22;25.20;49.60
7606;DHT22;3844;53.360;9.738;2022-09-03T08:20:23;25.10;49.50
7606;DHT22;3844;53.360;9.738;2022-09-03T08:22:24;25.20;49.10
7606;DHT22;3844;53.360;9.738;2022-09-03T08:24:25;25.10;48.60
7606;DHT22;3844;53.360;9.738;2022-09-03T08:26:25;25.00;48.80
7606;DHT22;3844;53.360;9.738;2022-09-03T08:28:27;24.90;49.40
7606;DHT22;3844;53.360;9.738;2022-09-03T08:30:27;25.00;48.90
7606;DHT22;3844;53.360;9.738;2022-09-03T08:32:28;25.40;49.10
7606;DHT22;3844;53.360;9.738;2022-09-03T08:34:29;25.70;48.70
7606;DHT22;3844;53.360;9.738;2022-09-03T08:36:30;25.80;47.50
7606;DHT22;3844;53.360;9.738;2022-09-03T08:38:32;26.00;48.10
7606;DHT22;3844;53.360;9.738;2022-09-03T08:40:36;26.10;47.10
7606;DHT22;3844;53.360;9.738;2022-09-03T08:45:20;26.50;46.80
7606;DHT22;3844;53.360;9.738;2022-09-03T08:47:31;26.70;47.10
7606;DHT22;3844;53.360;9.738;2022-09-03T08:49:47;26.90;47.00
7606;DHT22;3844;53.360;9.738;2022-09-03T08:51:50;27.00;45.00
7606;DHT22;3844;53.360;9.738;2022-09-03T08:53:53;26.60;46.10
7606;DHT22;3844;53.360;9.738;2022-09-03T08:56:07;26.70;46.30
7606;DHT22;3844;53.360;9.738;2022-09-03T09:00:14;27.20;45.20
7606;DHT22;3844;53.360;9.738;2022-09-03T09:05:04;27.10;45.60
7606;DHT22;3844;53.360;9.738;2022-09-03T09:07:12;27.40;45.10
7606;DHT22;3844;53.360;9.738;2022-09-03T09:12:28;27.80;44.50
7606;DHT22;3844;53.360;9.738;2022-09-03T09:14:38;28.20;43.60
7606;DHT22;3844;53.360;9.738;2022-09-03T09:19:23;28.30;43.20
7606;DHT22;3844;53.360;9.738;2022-09-03T09:21:30;28.20;42.40
7606;DHT22;3844;53.360;9.738;2022-09-03T09:24:03;27.70;43.80
7606;DHT22;3844;53.360;9.738;2022-09-03T09:26:10;27.60;44.80
7606;DHT22;3844;53.360;9.738;2022-09-03T09:28:20;27.80;44.30
7606;DHT22;3844;53.360;9.738;2022-09-03T09:30:21;28.00;43.40
7606;DHT22;3844;53.360;9.738;2022-09-03T09:32:22;27.80;43.50
7606;DHT22;3844;53.360;9.738;2022-09-03T09:34:23;27.60;43.60
7606;DHT22;3844;53.360;9.738;2022-09-03T09:36:24;27.90;44.00
7606;DHT22;3844;53.360;9.738;2022-09-03T09:38:36;28.40;43.90
7606;DHT22;3844;53.360;9.738;2022-09-03T09:40:43;28.10;42.60
7606;DHT22;3844;53.360;9.738;2022-09-03T09:42:43;27.80;43.20
7606;DHT22;3844;53.360;9.738;2022-09-03T09:44:44;27.50;44.10
7606;DHT22;3844;53.360;9.738;2022-09-03T09:46:45;27.60;44.00
7606;DHT22;3844;53.360;9.738;2022-09-03T09:48:54;27.80;44.10
7606;DHT22;3844;53.360;9.738;2022-09-03T09:53:12;27.30;43.80
7606;DHT22;3844;53.360;9.738;2022-09-03T09:55:18;26.80;44.60
7606;DHT22;3844;53.360;9.738;2022-09-03T09:57:24;26.90;45.10
7606;DHT22;3844;53.360;9.738;2022-09-03T09:59:25;27.00;44.10
7606;DHT22;3844;53.360;9.738;2022-09-03T10:01:25;27.00;45.00
7606;DHT22;3844;53.360;9.738;2022-09-03T10:03:31;27.30;43.90
7606;DHT22;3844;53.360;9.738;2022-09-03T10:05:35;27.50;42.60
7606;DHT22;3844;53.360;9.738;2022-09-03T10:07:38;27.80;42.20
7606;DHT22;3844;53.360;9.738;2022-09-03T10:09:39;28.20;41.70
7606;DHT22;3844;53.360;9.738;2022-09-03T10:11:43;28.00;41.10
7606;DHT22;3844;53.360;9.738;2022-09-03T10:13:47;28.00;41.00
7606;DHT22;3844;53.360;9.738;2022-09-03T10:15:54;28.10;41.30
7606;DHT22;3844;53.360;9.738;2022-09-03T10:22:41;29.00;40.90
7606;DHT22;3844;53.360;9.738;2022-09-03T10:24:57;29.20;40.50
7606;DHT22;3844;53.360;9.738;2022-09-03T10:26:58;29.70;39.60
7606;DHT22;3844;53.360;9.738;2022-09-03T10:29:01;29.80;38.70
7606;DHT22;3844;53.360;9.738;2022-09-03T10:31:19;30.10;39.00
7606;DHT22;3844;53.360;9.738;2022-09-03T10:36:08;30.10;38.70
7606;DHT22;3844;53.360;9.738;2022-09-03T10:38:32;30.50;38.90
7606;DHT22;3844;53.360;9.738;2022-09-03T10:46:02;31.20;38.00
7606;DHT22;3844;53.360;9.738;2022-09-03T10:51:11;30.60;37.70
7606;DHT22;3844;53.360;9.738;2022-09-03T10:53:29;30.00;38.50
7606;DHT22;3844;53.360;9.738;2022-09-03T10:55:40;30.00;38.20
7606;DHT22;3844;53.360;9.738;2022-09-03T11:00:06;30.00;37.20
7606;DHT22;3844;53.360;9.738;2022-09-03T11:04:42;29.40;38.20
7606;DHT22;3844;53.360;9.738;2022-09-03T11:06:51;29.60;37.50
7606;DHT22;3844;53.360;9.738;2022-09-03T11:09:10;29.80;38.50
7606;DHT22;3844;53.360;9.738;2022-09-03T11:11:24;30.30;37.00
7606;DHT22;3844;53.360;9.738;2022-09-03T11:13:35;30.50;37.60
7606;DHT22;3844;53.360;9.738;2022-09-03T11:15:39;30.60;36.90
7606;DHT22;3844;53.360;9.738;2022-09-03T11:17:48;30.40;36.60
7606;DHT22;3844;53.360;9.738;2022-09-03T11:22:14;30.00;37.40
7606;DHT22;3844;53.360;9.738;2022-09-03T11:24:29;30.10;37.80
7606;DHT22;3844;53.360;9.738;2022-09-03T11:26:33;30.70;37.10
7606;DHT22;3844;53.360;9.738;2022-09-03T11:33:07;30.90;36.90
7606;DHT22;3844;53.360;9.738;2022-09-03T11:35:23;30.90;36.10
7606;DHT22;3844;53.360;9.738;2022-09-03T11:37:26;30.40;36.80
7606;DHT22;3844;53.360;9.738;2022-09-03T11:41:33;29.20;38.30
7606;DHT22;3844;53.360;9.738;2022-09-03T11:43:35;29.30;38.40
7606;DHT22;3844;53.360;9.738;2022-09-03T11:45:36;29.80;37.70
7606;DHT22;3844;53.360;9.738;2022-09-03T11:47:40;30.20;38.00
7606;DHT22;3844;53.360;9.738;2022-09-03T11:49:47;30.50;37.10
7606;DHT22;3844;53.360;9.738;2022-09-03T11:52:02;30.30;36.80
7606;DHT22;3844;53.360;9.738;2022-09-03T11:56:18;30.30;36.50
7606;DHT22;3844;53.360;9.738;2022-09-03T11:58:39;29.70;36.90
7606;DHT22;3844;53.360;9.738;2022-09-03T12:00:42;29.20;38.00
7606;DHT22;3844;53.360;9.738;2022-09-03T12:07:32;29.40;37.60
7606;DHT22;3844;53.360;9.738;2022-09-03T12:18:39;29.20;37.60
7606;DHT22;3844;53.360;9.738;2022-09-03T12:20:41;28.70;38.10
7606;DHT22;3844;53.360;9.738;2022-09-03T12:22:41;28.40;38.10
7606;DHT22;3844;53.360;9.738;2022-09-03T12:24:42;28.60;39.10
7606;DHT22;3844;53.360;9.738;2022-09-03T12:26:44;29.10;37.60
7606;DHT22;3844;53.360;9.738;2022-09-03T12:28:56;29.50;38.00
7606;DHT22;3844;53.360;9.738;2022-09-03T12:31:05;29.70;37.30
7606;DHT22;3844;53.360;9.738;2022-09-03T12:33:08;29.70;37.00
7606;DHT22;3844;53.360;9.738;2022-09-03T12:35:18;29.90;37.10
7606;DHT22;3844;53.360;9.738;2022-09-03T12:37:22;29.90;37.00
7606;DHT22;3844;53.360;9.738;2022-09-03T12:39:25;29.90;36.00
7606;DHT22;3844;53.360;9.738;2022-09-03T12:41:28;29.70;36.60
7606;DHT22;3844;53.360;9.738;2022-09-03T12:43:30;29.50;37.10
7606;DHT22;3844;53.360;9.738;2022-09-03T12:47:38;29.00;37.60
7606;DHT22;3844;53.360;9.738;2022-09-03T12:49:44;28.40;38.20
7606;DHT22;3844;53.360;9.738;2022-09-03T12:51:45;27.80;38.60
7606;DHT22;3844;53.360;9.738;2022-09-03T12:53:46;27.30;40.00
7606;DHT22;3844;53.360;9.738;2022-09-03T12:55:51;27.10;40.00
7606;DHT22;3844;53.360;9.738;2022-09-03T12:58:16;27.00;40.80
7606;DHT22;3844;53.360;9.738;2022-09-03T13:00:29;27.50;40.60
7606;DHT22;3844;53.360;9.738;2022-09-03T13:04:40;28.90;39.50
7606;DHT22;3844;53.360;9.738;2022-09-03T13:06:59;29.70;38.20
7606;DHT22;3844;53.360;9.738;2022-09-03T13:09:05;30.40;36.30
7606;DHT22;3844;53.360;9.738;2022-09-03T13:11:07;29.90;36.30
7606;DHT22;3844;53.360;9.738;2022-09-03T13:15:25;28.90;38.10
7606;DHT22;3844;53.360;9.738;2022-09-03T13:22:15;29.20;37.20
7606;DHT22;3844;53.360;9.738;2022-09-03T13:26:58;29.30;37.70
7606;DHT22;3844;53.360;9.738;2022-09-03T13:29:36;29.60;37.70
7606;DHT22;3844;53.360;9.738;2022-09-03T13:31:46;29.80;37.10
7606;DHT22;3844;53.360;9.738;2022-09-03T13:34:02;29.50;36.90
7606;DHT22;3844;53.360;9.738;2022-09-03T13:36:25;29.40;36.90
7606;DHT22;3844;53.360;9.738;2022-09-03T13:40:46;28.80;38.80
7606;DHT22;3844;53.360;9.738;2022-09-03T13:42:54;28.90;38.30
7606;DHT22;3844;53.360;9.738;2022-09-03T13:45:11;29.20;37.50
7606;DHT22;3844;53.360;9.738;2022-09-03T13:52:01;29.10;37.80
7606;DHT22;3844;53.360;9.738;2022-09-03T13:54:26;28.80;37.60
7606;DHT22;3844;53.360;9.738;2022-09-03T13:56:49;29.00;37.90
7606;DHT22;3844;53.360;9.738;2022-09-03T13:59:13;29.20;38.00
7606;DHT22;3844;53.360;9.738;2022-09-03T14:08:44;28.60;38.60
7606;DHT22;3844;53.360;9.738;2022-09-03T14:13:19;28.50;38.90
7606;DHT22;3844;53.360;9.738;2022-09-03T14:17:47;28.70;37.90
7606;DHT22;3844;53.360;9.738;2022-09-03T14:22:55;27.90;38.50
7606;DHT22;3844;53.360;9.738;2022-09-03T14:25:02;27.50;38.50
7606;DHT22;3844;53.360;9.738;2022-09-03T14:27:04;26.80;40.00
7606;DHT22;3844;53.360;9.738;2022-09-03T14:36:29;25.90;41.30
7606;DHT22;3844;53.360;9.738;2022-09-03T14:44:49;25.20;41.60
7606;DHT22;3844;53.360;9.738;2022-09-03T14:59:03;24.50;42.80
7606;DHT22;3844;53.360;9.738;2022-09-03T15:01:12;24.40;42.90
7606;DHT22;3844;53.360;9.738;2022-09-03T15:10:56;23.90;44.30
7606;DHT22;3844;53.360;9.738;2022-09-03T15:13:16;23.90;44.00
7606;DHT22;3844;53.360;9.738;2022-09-03T15:15:27;23.80;43.80
7606;DHT22;3844;53.360;9.738;2022-09-03T15:17:37;23.80;44.40
7606;DHT22;3844;53.360;9.738;2022-09-03T15:19:57;23.70;44.00
7606;DHT22;3844;53.360;9.738;2022-09-03T15:36:20;23.30;44.60
7606;DHT22;3844;53.360;9.738;2022-09-03T15:40:48;23.40;44.30
7606;DHT22;3844;53.360;9.738;2022-09-03T15:42:54;23.30;44.20
7606;DHT22;3844;53.360;9.738;2022-09-03T15:45:29;23.20;44.10
7606;DHT22;3844;53.360;9.738;2022-09-03T15:47:39;23.10;44.30
7606;DHT22;3844;53.360;9.738;2022-09-03T15:49:54;23.10;44.70
7606;DHT22;3844;53.360;9.738;2022-09-03T15:52:22;23.00;44.60
7606;DHT22;3844;53.360;9.738;2022-09-03T15:54:42;22.90;44.70
7606;DHT22;3844;53.360;9.738;2022-09-03T15:57:16;22.80;44.70
7606;DHT22;3844;53.360;9.738;2022-09-03T15:59:27;22.80;45.40
7606;DHT22;3844;53.360;9.738;2022-09-03T16:02:14;22.70;46.00
7606;DHT22;3844;53.360;9.738;2022-09-03T16:06:26;22.70;46.20
7606;DHT22;3844;53.360;9.738;2022-09-03T16:09:16;22.70;46.10
7606;DHT22;3844;53.360;9.738;2022-09-03T16:16:02;22.60;46.50
7606;DHT22;3844;53.360;9.738;2022-09-03T16:22:40;22.50;46.50
7606;DHT22;3844;53.360;9.738;2022-09-03T16:25:01;22.40;46.20
7606;DHT22;3844;53.360;9.738;2022-09-03T16:27:16;22.40;46.30
7606;DHT22;3844;53.360;9.738;2022-09-03T16:29:24;22.30;46.50
7606;DHT22;3844;53.360;9.738;2022-09-03T16:36:24;22.10;46.70
7606;DHT22;3844;53.360;9.738;2022-09-03T16:38:35;22.00;47.00
7606;DHT22;3844;53.360;9.738;2022-09-03T16:40:53;22.00;47.20
7606;DHT22;3844;53.360;9.738;2022-09-03T17:13:48;21.00;49.60
7606;DHT22;3844;53.360;9.738;2022-09-03T17:15:59;20.90;49.60
7606;DHT22;3844;53.360;9.738;2022-09-03T17:20:36;20.90;49.60
7606;DHT22;3844;53.360;9.738;2022-09-03T17:25:01;20.70;50.00
7606;DHT22;3844;53.360;9.738;2022-09-03T17:29:44;20.60;50.40
7606;DHT22;3844;53.360;9.738;2022-09-03T17:34:28;20.40;50.90
7606;DHT22;3844;53.360;9.738;2022-09-03T17:36:36;20.30;51.10
7606;DHT22;3844;53.360;9.738;2022-09-03T17:54:55;19.80;52.70
7606;DHT22;3844;53.360;9.738;2022-09-03T17:59:18;19.60;53.00
7606;DHT22;3844;53.360;9.738;2022-09-03T18:01:23;19.60;53.10
7606;DHT22;3844;53.360;9.738;2022-09-03T18:03:28;19.60;53.00
7606;DHT22;3844;53.360;9.738;2022-09-03T18:05:45;19.50;53.40
7606;DHT22;3844;53.360;9.738;2022-09-03T18:10:26;19.30;53.40
7606;DHT22;3844;53.360;9.738;2022-09-03T18:13:20;19.30;53.60
7606;DHT22;3844;53.360;9.738;2022-09-03T18:15:27;19.20;53.70
7606;DHT22;3844;53.360;9.738;2022-09-03T18:17:50;19.10;53.90
7606;DHT22;3844;53.360;9.738;2022-09-03T18:20:10;19.00;54.20
7606;DHT22;3844;53.360;9.738;2022-09-03T18:22:35;18.90;54.60
7606;DHT22;3844;53.360;9.738;2022-09-03T18:24:58;18.80;54.90
7606;DHT22;3844;53.360;9.738;2022-09-03T18:27:39;18.70;55.20
7606;DHT22;3844;53.360;9.738;2022-09-03T18:30:05;18.60;55.30
7606;DHT22;3844;53.360;9.738;2022-09-03T18:32:24;18.60;55.60
7606;DHT22;3844;53.360;9.738;2022-09-03T18:34:45;18.50;55.70
7606;DHT22;3844;53.360;9.738;2022-09-03T18:37:05;18.50;55.60
7606;DHT22;3844;53.360;9.738;2022-09-03T18:39:26;18.40;55.90
7606;DHT22;3844;53.360;9.738;2022-09-03T18:42:03;18.40;55.90